Nearby METAR Reports

 

YMEN - Melbourne/Essendon, Australia
Distance from station: WNW 102km
Updated: 12/04/2021 06:00
Mostly cloudy
Mostly cloudy
 Wind from WSW
Wind: WSW 20 km/h
Temperature: 10°C
Wind Chill: 7°C
Dew Point: 9°C
Humidity: 94%
Barometer: 1022 hPa
Clouds: Mostly cloudy
Visibility: 10 km
Cloud details: Mostly cloudy 1524 m
Mostly cloudy 1859 m
2021/04/11 20:00 YMEN 112000Z AUTO 25011KT 9999 // BKN050 BKN061 10/09 Q1022
YMML - Melbourne Intl A, Australia
Distance from station: WNW 111km
Updated: 12/04/2021 06:30
Partly cloudy
Partly cloudy
 Wind from WSW
Wind: WSW 22 km/h
Temperature: 10°C
Wind Chill: 7°C
Dew Point: 9°C
Humidity: 94%
Barometer: 1022 hPa
Clouds: Partly cloudy
Visibility: 10 km
Cloud details: Few Clouds 183 m
Partly cloudy 1433 m
2021/04/11 20:30 YMML 112030Z 24012KT 9999 FEW006 SCT047 10/09 Q1022
 
YMAV - Avalon Airport, Australia
Distance from station: W 135km
Updated: 12/04/2021 06:30
Light rain, Showers, Mostly cloudy
Light rain, Showers, Mostly cloudy
 Wind from W
Wind: W 17 km/h
Temperature: 10°C
Wind Chill: 8°C
Dew Point: 9°C
Humidity: 94%
Barometer: 1022 hPa
Summary: Light rain, Showers
Clouds: Mostly cloudy
Visibility: 5 km
Cloud details: Partly cloudy 671 m
Mostly cloudy 792 m
Mostly cloudy 975 m
2021/04/11 20:30 YMAV 112030Z AUTO 26009KT 4700 -SHRA SCT022 BKN026 BKN032 10/09 Q1022
YWGT - Wangaratta Arp, Australia
Distance from station: N 172km
Updated: 12/04/2021 06:00
Clear
Clear
 Wind from E
Wind: E 7 km/h
Temperature: 3°C
Wind Chill: 1°C
Dew Point: 2°C
Humidity: 93%
Barometer: 1020 hPa
Clouds: Clear
Visibility: 10 km
2021/04/11 20:00 YWGT 112000Z AUTO 08004KT 9999 // NCD 03/02 Q1020